Darfield, United Kingdom
Current Conditions -  °F | °C
As of 10:20 PM on Tuesday 25 Nov 2014 (Local Time) from EGCN Reporting Station
Scattered Clouds Scattered Clouds  
Wind Chill: 38°   Ceiling: Unl
Heat Index: 43°   Visibility: 4mi
Dew Point: 41°   Wind: 8mph
Humidity: 93%   Direction: 350°N
Pressure: 30.12"   Gusts: NA
Location:  53.53°N, 1.38°W
Report Text: EGCN 252220Z 35007KT 7000 SCT021 SCT027 06/05 Q1020
Loading
Personal Weather Stations






























Interactive Weather Map New forecast layout! Learn more

10-Day Weather Forecast

Advertisements
Track Severe Weather on mobile